Time;durP1;ratioP1;P1;durP2;ratioP2;P2;SDS_P1;SDS_P2;PMS_P1;PMS_P2;Temp;Humidity;BMP_temperature;BMP_pressure;BME280_temperature;BME280_humidity;BME280_pressure;Samples;Min_cycle;Max_cycle;Signal;HPM_P1;HPM_P2
2023/11/03 00:00:08;;;;;;;4.78;0.43;;;12.80;99.80;;;;;;5046488;28;20039;-69
2023/11/03 00:02:34;;;;;;;4.13;1.00;;;12.80;99.80;;;;;;5044169;28;20121;-69
2023/11/03 00:05:02;;;;;;;4.60;0.95;;;12.80;99.70;;;;;;5046936;28;20457;-69
2023/11/03 00:07:30;;;;;;;1.95;0.95;;;12.80;99.70;;;;;;5047192;28;20060;-69
2023/11/03 00:09:58;;;;;;;4.60;0.85;;;12.80;99.70;;;;;;5045097;28;21006;-69
2023/11/03 00:12:24;;;;;;;7.00;1.17;;;12.70;99.70;;;;;;5046521;28;20082;-69
2023/11/03 00:14:50;;;;;;;2.67;0.63;;;12.60;99.70;;;;;;5044815;28;20099;-69
2023/11/03 00:17:16;;;;;;;1.55;0.43;;;12.70;99.80;;;;;;5045688;28;20100;-69
2023/11/03 00:19:42;;;;;;;8.30;0.82;;;12.60;99.90;;;;;;5046229;28;20063;-69
2023/11/03 00:22:10;;;;;;;3.80;0.82;;;12.60;99.80;;;;;;5047541;28;20498;-69
2023/11/03 00:24:37;;;;;;;3.80;0.68;;;12.50;99.80;;;;;;5045549;28;20123;-69
2023/11/03 00:27:05;;;;;;;5.68;0.98;;;12.70;99.80;;;;;;5046506;28;20523;-69
2023/11/03 00:29:30;;;;;;;;;;;12.50;99.70;;;;;;5043662;28;20467;-69
2023/11/03 00:31:58;;;;;;;10.05;1.40;;;12.50;99.80;;;;;;5046175;28;19916;-69
2023/11/03 00:34:24;;;;;;;;;;;12.50;99.80;;;;;;5046701;28;20483;-69
2023/11/03 00:36:52;;;;;;;4.80;0.77;;;12.50;99.80;;;;;;5045427;28;19912;-69
2023/11/03 00:39:20;;;;;;;6.75;0.90;;;12.40;99.80;;;;;;5041400;28;20036;-69
2023/11/03 00:41:48;;;;;;;4.35;0.80;;;12.40;99.90;;;;;;5046458;28;20535;-69
2023/11/03 00:44:14;;;;;;;4.28;0.80;;;12.40;99.80;;;;;;5045103;28;20037;-69
2023/11/03 00:46:41;;;;;;;1.67;0.77;;;12.40;99.90;;;;;;5045178;28;20029;-69
2023/11/03 00:49:11;;;;;;;2.78;0.80;;;12.30;99.90;;;;;;5045333;28;20649;-69
2023/11/03 00:51:39;;;;;;;2.42;0.80;;;12.30;99.90;;;;;;5044540;28;20028;-69
2023/11/03 00:54:09;;;;;;;2.33;1.00;;;12.30;99.90;;;;;;5044615;28;20083;-69
2023/11/03 00:56:43;;;;;;;2.13;0.70;;;12.30;99.90;;;;;;5045823;28;20122;-69
2023/11/03 00:59:11;;;;;;;2.60;0.73;;;12.20;99.90;;;;;;5045325;28;20072;-69
2023/11/03 01:01:38;;;;;;;4.18;1.00;;;12.20;99.90;;;;;;5048793;28;20175;-69
2023/11/03 01:04:05;;;;;;;5.32;1.13;;;12.20;99.90;;;;;;5047218;28;20044;-69
2023/11/03 01:06:31;;;;;;;3.17;0.80;;;12.10;99.90;;;;;;5049805;28;20394;-69
2023/11/03 01:08:58;;;;;;;3.97;0.77;;;12.20;99.90;;;;;;5050337;28;20697;-69
2023/11/03 01:11:26;;;;;;;4.00;0.63;;;12.10;99.90;;;;;;5048665;28;20105;-69
2023/11/03 01:13:52;;;;;;;8.67;1.23;;;12.10;99.90;;;;;;5048387;28;20067;-69
2023/11/03 01:16:25;;;;;;;3.75;0.88;;;12.10;99.90;;;;;;5047958;28;20277;-69
2023/11/03 01:18:54;;;;;;;5.22;0.73;;;12.10;99.90;;;;;;5050325;28;20025;-69
2023/11/03 01:21:22;;;;;;;4.38;0.90;;;12.10;99.90;;;;;;5049110;28;20443;-69
2023/11/03 01:23:48;;;;;;;2.88;0.93;;;12.00;99.90;;;;;;5048072;28;20029;-69
2023/11/03 01:26:15;;;;;;;7.30;1.10;;;12.10;99.90;;;;;;5030343;28;20392;-69
2023/11/03 01:28:41;;;;;;;2.40;0.75;;;12.10;99.90;;;;;;5045701;28;20435;-69
2023/11/03 01:31:08;;;;;;;4.50;0.90;;;12.10;99.80;;;;;;5048134;28;20028;-69
2023/11/03 01:33:34;;;;;;;4.50;0.80;;;12.00;99.70;;;;;;5048979;28;20117;-69
2023/11/03 01:36:04;;;;;;;6.53;1.10;;;12.00;99.80;;;;;;5049412;28;20511;-69
2023/11/03 01:38:32;;;;;;;3.03;0.80;;;12.00;99.70;;;;;;5047862;28;20044;-69
2023/11/03 01:41:00;;;;;;;;;;;12.00;99.70;;;;;;5047722;28;20108;-69
2023/11/03 01:43:26;;;;;;;4.45;0.98;;;12.00;99.60;;;;;;5046626;28;19927;-69
2023/11/03 01:45:51;;;;;;;5.72;1.27;;;12.00;99.60;;;;;;5049087;28;20032;-69
2023/11/03 01:48:17;;;;;;;3.38;1.05;;;12.00;99.60;;;;;;5032705;28;20086;-69
2023/11/03 01:50:43;;;;;;;4.43;0.70;;;11.90;99.60;;;;;;5047178;28;20111;-69
2023/11/03 01:53:10;;;;;;;4.32;1.05;;;11.90;99.50;;;;;;5048415;28;20056;-69
2023/11/03 01:55:36;;;;;;;5.07;1.15;;;12.00;99.60;;;;;;5047147;28;20529;-69
2023/11/03 01:58:02;;;;;;;12.77;1.35;;;11.90;99.40;;;;;;5048481;28;20045;-69
2023/11/03 02:00:31;;;;;;;8.15;1.40;;;11.90;99.40;;;;;;5045740;28;20108;-69
2023/11/03 02:02:56;;;;;;;5.68;1.00;;;11.80;99.30;;;;;;5049311;28;20463;-69
2023/11/03 02:05:22;;;;;;;7.20;1.73;;;11.80;99.30;;;;;;5048720;28;20028;-69
2023/11/03 02:07:48;;;;;;;4.18;1.13;;;11.80;99.60;;;;;;5047762;28;20021;-69
2023/11/03 02:10:14;;;;;;;4.95;1.08;;;11.80;99.30;;;;;;5032540;28;20078;-69
2023/11/03 02:12:40;;;;;;;12.40;1.33;;;11.80;99.20;;;;;;5047247;28;20025;-69
2023/11/03 02:15:06;;;;;;;8.48;0.90;;;11.80;99.20;;;;;;5049237;28;20021;-69
2023/11/03 02:17:34;;;;;;;3.42;0.80;;;11.80;99.20;;;;;;5046873;28;20052;-69
2023/11/03 02:20:00;;;;;;;6.80;0.90;;;11.80;99.20;;;;;;5049897;28;20397;-69
2023/11/03 02:22:28;;;;;;;7.65;1.10;;;11.80;99.20;;;;;;5046689;28;20036;-69
2023/11/03 02:24:54;;;;;;;4.53;1.10;;;11.70;99.00;;;;;;5047368;28;20045;-69
2023/11/03 02:27:20;;;;;;;6.82;0.98;;;11.80;99.10;;;;;;5046212;28;20079;-69
2023/11/03 02:29:46;;;;;;;5.25;1.17;;;11.70;98.90;;;;;;5047839;28;20033;-69
2023/11/03 02:32:12;;;;;;;2.78;0.80;;;11.60;98.90;;;;;;5044318;28;20455;-69
2023/11/03 02:34:38;;;;;;;7.65;1.30;;;11.60;98.90;;;;;;5046795;28;20032;-69
2023/11/03 02:37:03;;;;;;;6.28;1.02;;;11.50;99.00;;;;;;5047812;28;20395;-69
2023/11/03 02:39:32;;;;;;;7.03;1.42;;;11.60;99.00;;;;;;5046445;28;20029;-69
2023/11/03 02:41:58;;;;;;;8.70;1.48;;;11.60;99.00;;;;;;5048744;28;20056;-69
2023/11/03 02:44:26;;;;;;;5.15;1.30;;;11.60;99.00;;;;;;5049726;28;20610;-69
2023/11/03 02:46:51;;;;;;;8.05;1.42;;;11.60;99.00;;;;;;5049357;28;20059;-69
2023/11/03 02:49:19;;;;;;;10.68;1.25;;;11.50;99.00;;;;;;5029217;28;20476;-69
2023/11/03 02:51:47;;;;;;;14.05;1.17;;;11.50;98.90;;;;;;5048981;28;20041;-69
2023/11/03 02:54:14;;;;;;;8.85;1.35;;;11.60;98.90;;;;;;5047373;28;20523;-69
2023/11/03 02:56:40;;;;;;;4.72;1.20;;;11.50;98.90;;;;;;5048336;28;20032;-69
2023/11/03 02:59:06;;;;;;;6.78;1.17;;;11.50;99.00;;;;;;5047476;28;20025;-69
2023/11/03 03:01:32;;;;;;;6.28;1.02;;;11.50;99.00;;;;;;5047043;28;20380;-69
2023/11/03 03:04:01;;;;;;;8.35;1.42;;;11.50;98.90;;;;;;5046040;28;20064;-69
2023/11/03 03:06:26;;;;;;;;;;;11.50;99.10;;;;;;5044107;28;20021;-69
2023/11/03 03:08:52;;;;;;;6.57;1.48;;;11.40;99.10;;;;;;5046864;28;20335;-69
2023/11/03 03:11:20;;;;;;;9.65;1.52;;;11.50;99.10;;;;;;5046146;28;20110;-69
2023/11/03 03:13:45;;;;;;;14.27;1.10;;;11.50;99.10;;;;;;5047756;28;20095;-69
2023/11/03 03:16:15;;;;;;;8.63;1.52;;;11.50;99.20;;;;;;5046792;28;20076;-69
2023/11/03 03:18:41;;;;;;;5.85;1.02;;;11.50;99.30;;;;;;5043635;28;20052;-69
2023/11/03 03:21:07;;;;;;;8.05;1.90;;;11.50;99.20;;;;;;5044407;28;20205;-69
2023/11/03 03:23:33;;;;;;;6.90;1.55;;;11.50;99.30;;;;;;5045786;28;20552;-69
2023/11/03 03:26:01;;;;;;;11.27;1.42;;;11.50;99.30;;;;;;5046983;28;20036;-68
2023/11/03 03:28:28;;;;;;;7.93;1.73;;;11.50;99.30;;;;;;5030376;28;20513;-69
2023/11/03 03:30:54;;;;;;;3.33;1.20;;;11.50;99.20;;;;;;5029761;28;20471;-69
2023/11/03 03:33:20;;;;;;;8.25;1.42;;;11.50;99.30;;;;;;5048506;28;20033;-69
2023/11/03 03:35:49;;;;;;;7.80;1.50;;;11.50;99.30;;;;;;5046439;28;20029;-70
2023/11/03 03:38:19;;;;;;;6.72;1.30;;;11.40;99.30;;;;;;5047847;28;20048;-69
2023/11/03 03:40:44;;;;;;;7.93;1.52;;;11.30;99.40;;;;;;5045669;28;20033;-69
2023/11/03 03:43:10;;;;;;;7.25;1.40;;;11.30;99.50;;;;;;5046740;28;20032;-69
2023/11/03 03:45:36;;;;;;;8.48;1.30;;;11.30;99.60;;;;;;5047990;28;20515;-69
2023/11/03 03:48:01;;;;;;;12.57;1.10;;;11.30;99.60;;;;;;5047420;28;20013;-69
2023/11/03 03:50:27;;;;;;;7.03;1.17;;;11.30;99.50;;;;;;5046262;28;20035;-69
2023/11/03 03:52:55;;;;;;;9.55;1.15;;;11.30;99.60;;;;;;5046053;28;20033;-69
2023/11/03 03:55:20;;;;;;;7.20;1.30;;;11.30;99.60;;;;;;5045505;28;20461;-69
2023/11/03 03:57:48;;;;;;;6.35;0.98;;;11.30;99.50;;;;;;5046558;28;20029;-69
2023/11/03 04:00:18;;;;;;;6.63;1.45;;;11.30;99.60;;;;;;5047629;28;20438;-69
2023/11/03 04:02:44;;;;;;;8.30;1.30;;;11.30;99.60;;;;;;5046278;28;20519;-69
2023/11/03 04:05:10;;;;;;;7.45;1.40;;;11.20;99.70;;;;;;5046091;28;20446;-69
2023/11/03 04:07:38;;;;;;;10.55;1.75;;;11.30;99.70;;;;;;5046308;28;20024;-69
2023/11/03 04:10:07;;;;;;;4.47;0.80;;;11.30;99.50;;;;;;5046862;28;20074;-69
2023/11/03 04:12:33;;;;;;;6.15;0.98;;;11.30;99.60;;;;;;5046890;28;20120;-69
2023/11/03 04:14:58;;;;;;;4.60;1.45;;;11.30;99.60;;;;;;5028666;28;20109;-69
2023/11/03 04:17:26;;;;;;;5.07;1.25;;;11.40;99.70;;;;;;5044780;28;20017;-68
2023/11/03 04:19:52;;;;;;;14.45;2.15;;;11.40;99.60;;;;;;5042737;28;20037;-69
2023/11/03 04:22:17;;;;;;;7.72;1.95;;;11.30;99.50;;;;;;5044417;28;20017;-69
2023/11/03 04:24:43;;;;;;;4.85;1.13;;;11.30;99.60;;;;;;5043897;28;20429;-69
2023/11/03 04:27:08;;;;;;;8.23;1.35;;;11.30;99.60;;;;;;5044684;28;20036;-69
2023/11/03 04:29:34;;;;;;;4.40;1.13;;;11.30;99.60;;;;;;5042902;28;20399;-69
2023/11/03 04:32:00;;;;;;;15.23;1.58;;;11.20;99.50;;;;;;5040979;28;20021;-69
2023/11/03 04:34:27;;;;;;;8.82;1.17;;;11.20;99.70;;;;;;5030980;28;20033;-69
2023/11/03 04:36:54;;;;;;;8.75;1.15;;;11.10;99.90;;;;;;5052136;28;20096;-69
2023/11/03 04:39:19;;;;;;;6.20;1.40;;;11.10;99.90;;;;;;5049880;28;20070;-69
2023/11/03 04:41:45;;;;;;;6.63;1.35;;;11.00;99.90;;;;;;5051917;28;20033;-69
2023/11/03 04:44:11;;;;;;;9.52;1.60;;;11.10;99.90;;;;;;5049850;28;20064;-69
2023/11/03 04:46:42;;;;;;;8.60;1.75;;;11.00;99.90;;;;;;5053335;28;20086;-69
2023/11/03 04:49:08;;;;;;;5.80;1.23;;;11.00;99.90;;;;;;5157895;23;20007;-70
2023/11/03 04:51:33;;;;;;;7.78;1.55;;;10.90;99.90;;;;;;5047354;28;20025;-69
2023/11/03 04:53:59;;;;;;;9.82;1.20;;;10.90;99.90;;;;;;5046941;28;20021;-69
2023/11/03 04:56:25;;;;;;;8.15;1.42;;;10.90;99.90;;;;;;5049243;28;20064;-69
2023/11/03 04:58:50;;;;;;;3.75;0.88;;;10.90;99.90;;;;;;5053054;28;20594;-68
2023/11/03 05:01:18;;;;;;;8.23;1.27;;;10.80;99.90;;;;;;5050864;28;20063;-69
2023/11/03 05:03:44;;;;;;;7.05;1.35;;;10.90;99.90;;;;;;5050187;28;20025;-69
2023/11/03 05:06:12;;;;;;;3.22;0.80;;;10.80;99.90;;;;;;5051360;28;20510;-69
2023/11/03 05:08:38;;;;;;;7.43;1.10;;;10.80;99.90;;;;;;5066831;28;20112;-69
2023/11/03 05:11:04;;;;;;;8.55;1.45;;;10.80;99.90;;;;;;5049998;28;20048;-69
2023/11/03 05:13:31;;;;;;;6.95;1.35;;;10.80;99.90;;;;;;5054008;28;20435;-69
2023/11/03 05:15:57;;;;;;;5.82;1.52;;;10.80;99.90;;;;;;5049701;28;20021;-69
2023/11/03 05:18:22;;;;;;;9.73;1.23;;;10.80;99.90;;;;;;5053668;28;20075;-69
2023/11/03 05:20:48;;;;;;;5.93;1.10;;;10.80;99.90;;;;;;5051455;28;20075;-69
2023/11/03 05:23:14;;;;;;;13.90;1.38;;;10.70;99.90;;;;;;5048958;28;20550;-69
2023/11/03 05:25:39;;;;;;;5.15;1.05;;;10.70;99.90;;;;;;5051735;28;20403;-69
2023/11/03 05:28:05;;;;;;;4.22;0.80;;;10.70;99.90;;;;;;5053013;28;20108;-70
2023/11/03 05:30:30;;;;;;;6.57;0.90;;;10.70;99.90;;;;;;5053077;28;20578;-70
2023/11/03 05:32:59;;;;;;;4.43;1.13;;;10.70;99.90;;;;;;5047961;28;20037;-70
2023/11/03 05:35:24;;;;;;;5.57;1.08;;;10.70;99.90;;;;;;5049895;28;20025;-69
2023/11/03 05:37:51;;;;;;;9.18;1.33;;;10.60;99.90;;;;;;5053677;28;20031;-69
2023/11/03 05:40:18;;;;;;;9.57;1.35;;;10.60;99.90;;;;;;5048137;28;20034;-69
2023/11/03 05:42:43;;;;;;;4.88;0.80;;;10.60;99.90;;;;;;5049931;28;20080;-69
2023/11/03 05:45:09;;;;;;;7.75;0.95;;;10.60;99.90;;;;;;5052339;28;20060;-69
2023/11/03 05:47:35;;;;;;;4.60;1.30;;;10.60;99.90;;;;;;5045005;28;20915;-70
2023/11/03 05:50:03;;;;;;;3.47;0.98;;;10.70;99.90;;;;;;5043372;28;20036;-69
2023/11/03 05:52:29;;;;;;;2.45;0.60;;;10.80;99.90;;;;;;5049741;28;20064;-69
2023/11/03 05:54:54;;;;;;;5.18;1.20;;;10.70;99.90;;;;;;5049530;28;20049;-69
2023/11/03 05:57:20;;;;;;;5.82;1.20;;;10.70;99.90;;;;;;5050435;28;20033;-70
2023/11/03 05:59:48;;;;;;;5.72;1.05;;;10.70;99.90;;;;;;5048663;28;20044;-69
2023/11/03 06:02:15;;;;;;;;;;;10.80;99.90;;;;;;5046106;28;20419;-69
2023/11/03 06:04:41;;;;;;;5.63;1.08;;;10.70;99.90;;;;;;5046785;28;19948;-70
2023/11/03 06:07:06;;;;;;;8.10;0.93;;;10.70;99.90;;;;;;5045970;28;20031;-69
2023/11/03 06:09:33;;;;;;;7.97;1.35;;;10.80;99.90;;;;;;5049569;28;20391;-69
2023/11/03 06:12:02;;;;;;;8.95;1.15;;;10.70;99.90;;;;;;5047613;28;20027;-69
2023/11/03 06:14:28;;;;;;;5.38;1.27;;;10.80;99.90;;;;;;5044381;28;20411;-69
2023/11/03 06:16:56;;;;;;;4.18;0.73;;;10.80;99.90;;;;;;5048304;28;20017;-69
2023/11/03 06:19:21;;;;;;;5.85;1.15;;;10.80;99.90;;;;;;5048960;28;20085;-69
2023/11/03 06:21:47;;;;;;;7.82;0.90;;;10.70;99.90;;;;;;5050351;28;20041;-69
2023/11/03 06:24:13;;;;;;;16.17;1.38;;;10.70;99.90;;;;;;5046057;28;20033;-69
2023/11/03 06:26:38;;;;;;;10.48;1.95;;;10.70;99.90;;;;;;5049156;28;20051;-69
2023/11/03 06:29:04;;;;;;;5.28;1.02;;;10.80;99.90;;;;;;5046233;28;20040;-70
2023/11/03 06:31:33;;;;;;;6.80;1.20;;;10.80;99.90;;;;;;5046933;28;20468;-69
2023/11/03 06:34:02;;;;;;;8.18;1.05;;;10.90;99.90;;;;;;5047584;28;20013;-69
2023/11/03 06:36:28;;;;;;;6.97;1.15;;;10.90;99.90;;;;;;5047495;28;20017;-69
2023/11/03 06:38:54;;;;;;;6.78;0.82;;;10.90;99.90;;;;;;5046768;28;20029;-69
2023/11/03 06:41:22;;;;;;;6.78;1.20;;;10.90;99.90;;;;;;5044145;28;20376;-69
2023/11/03 06:43:50;;;;;;;5.35;1.20;;;10.90;99.90;;;;;;5043213;28;20029;-70
2023/11/03 06:46:16;;;;;;;11.40;1.10;;;11.00;99.90;;;;;;5045616;28;20043;-69
2023/11/03 06:48:44;;;;;;;8.25;1.60;;;11.00;99.90;;;;;;5041485;28;20025;-70
2023/11/03 06:51:12;;;;;;;;;;;11.10;99.90;;;;;;5046561;28;20040;-69
2023/11/03 06:53:40;;;;;;;9.38;1.00;;;11.10;99.90;;;;;;5045400;28;19962;-69
2023/11/03 06:56:07;;;;;;;3.97;0.98;;;11.10;99.90;;;;;;5044277;28;20025;-69
2023/11/03 06:58:35;;;;;;;5.00;0.88;;;11.10;99.90;;;;;;5049307;28;20525;-69
2023/11/03 07:01:04;;;;;;;8.70;1.08;;;11.10;99.90;;;;;;5047116;28;20035;-69
2023/11/03 07:03:30;;;;;;;8.40;1.30;;;11.10;99.90;;;;;;5045492;28;20053;-69
2023/11/03 07:05:56;;;;;;;3.65;1.30;;;11.10;99.90;;;;;;5048355;28;20013;-69
2023/11/03 07:08:22;;;;;;;9.55;1.25;;;11.10;99.90;;;;;;5048571;28;20044;-69
2023/11/03 07:10:47;;;;;;;3.22;0.90;;;11.20;99.90;;;;;;5047079;28;20021;-72
2023/11/03 07:13:13;;;;;;;2.75;0.80;;;11.10;99.90;;;;;;5047639;28;20031;-70
2023/11/03 07:15:39;;;;;;;6.28;0.85;;;11.10;99.90;;;;;;5043001;28;20430;-70
2023/11/03 07:18:05;;;;;;;8.10;1.15;;;11.20;99.90;;;;;;5041390;28;20112;-69
2023/11/03 07:20:31;;;;;;;4.57;0.88;;;11.30;99.90;;;;;;5043480;28;20188;-69
2023/11/03 07:22:58;;;;;;;8.70;1.17;;;11.20;99.90;;;;;;5047458;28;20092;-69
2023/11/03 07:25:27;;;;;;;4.68;0.90;;;11.30;99.90;;;;;;5040451;28;20025;-69
2023/11/03 07:27:55;;;;;;;3.20;0.80;;;11.30;99.90;;;;;;5041751;28;20028;-70
2023/11/03 07:30:20;;;;;;;5.50;1.20;;;11.30;99.90;;;;;;5043097;28;20086;-69
2023/11/03 07:32:47;;;;;;;8.70;0.98;;;11.30;99.90;;;;;;5046213;28;20033;-69
2023/11/03 07:35:13;;;;;;;8.83;1.20;;;11.40;99.90;;;;;;5046058;28;20021;-69
2023/11/03 07:37:39;;;;;;;3.03;0.75;;;11.40;99.90;;;;;;5047159;28;20025;-70
2023/11/03 07:40:27;;;;;;;8.27;1.05;;;11.40;99.90;;;;;;5046612;28;20029;-70
2023/11/03 07:42:55;;;;;;;4.95;1.08;;;11.50;99.90;;;;;;5047407;28;20123;-69
2023/11/03 07:45:23;;;;;;;3.80;0.82;;;11.40;99.90;;;;;;5053711;28;20090;-69
2023/11/03 07:47:49;;;;;;;5.00;0.73;;;11.50;99.90;;;;;;5052982;28;20052;-70
2023/11/03 07:50:16;;;;;;;2.95;0.85;;;11.50;99.90;;;;;;5046763;28;20045;-70
2023/11/03 07:52:46;;;;;;;8.40;1.10;;;11.50;99.90;;;;;;5050298;28;20536;-70
2023/11/03 07:55:15;;;;;;;8.10;1.10;;;11.50;99.90;;;;;;5052105;28;20039;-70
2023/11/03 07:57:44;;;;;;;8.95;0.85;;;11.50;99.90;;;;;;5050315;28;20033;-70
2023/11/03 08:00:16;;;;;;;5.50;0.93;;;11.50;99.90;;;;;;5046801;28;20037;-69
2023/11/03 08:02:43;;;;;;;3.85;0.82;;;11.60;99.90;;;;;;5045440;28;20029;-70
2023/11/03 08:05:11;;;;;;;6.97;0.90;;;11.60;99.90;;;;;;5044259;28;20039;-69
2023/11/03 08:07:41;;;;;;;6.38;1.48;;;11.60;99.90;;;;;;5045926;28;20041;-71
2023/11/03 08:10:11;;;;;;;3.80;0.90;;;11.60;99.90;;;;;;5036248;28;20094;-71
2023/11/03 08:12:38;;;;;;;5.10;0.80;;;11.70;99.90;;;;;;5047689;28;20120;-70
2023/11/03 08:15:08;;;;;;;2.72;0.70;;;11.60;99.90;;;;;;5031390;28;20091;-72
2023/11/03 08:17:42;;;;;;;7.25;0.85;;;11.70;99.90;;;;;;5049890;28;20201;-72
2023/11/03 08:20:13;;;;;;;5.85;1.08;;;11.70;99.90;;;;;;5043368;28;20086;-70
2023/11/03 08:22:42;;;;;;;5.65;0.93;;;11.80;99.90;;;;;;5042671;28;20423;-70
2023/11/03 08:25:08;;;;;;;7.78;1.45;;;11.80;99.90;;;;;;5045682;28;20527;-71
2023/11/03 08:27:34;;;;;;;3.13;0.73;;;11.80;99.90;;;;;;5043919;28;20354;-71
2023/11/03 08:30:01;;;;;;;3.53;0.73;;;11.90;99.90;;;;;;5044011;28;20064;-68
2023/11/03 08:32:29;;;;;;;4.53;1.25;;;11.90;99.90;;;;;;5041452;28;20044;-69
2023/11/03 08:34:56;;;;;;;12.95;1.13;;;11.90;99.90;;;;;;5045940;28;20041;-70
2023/11/03 08:37:22;;;;;;;3.13;1.02;;;12.00;99.90;;;;;;5046207;28;20024;-70
2023/11/03 08:39:48;;;;;;;6.35;1.25;;;12.00;99.90;;;;;;5044806;28;20025;-70
2023/11/03 08:42:14;;;;;;;6.45;0.90;;;11.90;99.60;;;;;;5044208;28;20071;-69
2023/11/03 08:44:40;;;;;;;4.20;0.80;;;11.90;99.50;;;;;;5047124;28;20033;-70
2023/11/03 08:47:07;;;;;;;4.90;1.00;;;12.00;99.60;;;;;;5044898;28;20078;-69
2023/11/03 08:49:34;;;;;;;8.80;1.23;;;12.00;99.60;;;;;;5042196;28;20483;-72
2023/11/03 08:52:00;;;;;;;5.97;1.05;;;12.00;99.50;;;;;;5040107;28;20492;-70
2023/11/03 08:54:26;;;;;;;3.03;1.10;;;12.00;99.30;;;;;;5044177;28;20029;-71
2023/11/03 08:56:54;;;;;;;6.50;1.08;;;12.10;99.40;;;;;;5045578;28;20025;-69
2023/11/03 08:59:20;;;;;;;15.07;1.20;;;12.10;99.20;;;;;;5047512;28;20029;-69
2023/11/03 09:01:53;;;;;;;4.78;1.00;;;12.10;99.30;;;;;;5044301;28;21303;-69
2023/11/03 09:04:22;;;;;;;3.00;1.05;;;12.20;99.20;;;;;;5043862;28;20060;-70
2023/11/03 09:06:48;;;;;;;4.93;1.35;;;12.20;98.80;;;;;;5047462;28;20025;-70
2023/11/03 09:09:14;;;;;;;5.68;0.80;;;12.20;98.80;;;;;;5044041;28;20090;-70
2023/11/03 09:11:41;;;;;;;4.95;0.93;;;12.20;99.10;;;;;;5042342;28;20030;-71
2023/11/03 09:14:08;;;;;;;7.87;1.23;;;12.20;98.90;;;;;;5043828;28;20072;-72
2023/11/03 09:16:34;;;;;;;9.02;0.98;;;12.30;99.00;;;;;;5045793;28;20027;-70
2023/11/03 09:19:00;;;;;;;4.80;1.23;;;12.40;99.10;;;;;;5041330;28;20017;-70
2023/11/03 09:21:26;;;;;;;9.70;1.40;;;12.40;98.70;;;;;;5047820;28;20032;-70
2023/11/03 09:23:51;;;;;;;6.80;0.90;;;12.40;98.90;;;;;;5051399;28;20029;-70
2023/11/03 09:26:17;;;;;;;5.35;1.20;;;12.40;98.70;;;;;;5049687;28;20618;-70
2023/11/03 09:28:44;;;;;;;4.13;1.20;;;12.50;98.90;;;;;;5047633;28;20033;-70
2023/11/03 09:31:10;;;;;;;7.93;1.33;;;12.60;98.90;;;;;;5045906;28;20017;-70
2023/11/03 09:33:38;;;;;;;4.18;0.85;;;12.70;99.00;;;;;;5044524;28;20029;-70
2023/11/03 09:36:06;;;;;;;;;;;12.80;98.80;;;;;;5048581;28;20040;-70
2023/11/03 09:38:32;;;;;;;6.35;1.00;;;12.90;98.70;;;;;;5045422;28;19915;-70
2023/11/03 09:40:58;;;;;;;5.03;1.00;;;12.90;98.60;;;;;;5048292;28;20096;-70
2023/11/03 09:43:24;;;;;;;8.85;0.77;;;13.00;98.60;;;;;;5046033;28;20043;-70
2023/11/03 09:45:52;;;;;;;9.13;1.55;;;13.10;98.80;;;;;;5046634;28;20048;-70
2023/11/03 09:48:21;;;;;;;6.30;1.27;;;13.10;98.00;;;;;;5051654;28;20594;-70
2023/11/03 09:50:47;;;;;;;4.95;0.90;;;13.10;98.10;;;;;;5048228;28;20034;-70
2023/11/03 09:53:20;;;;;;;12.30;1.33;;;13.10;98.10;;;;;;5044252;28;20026;-71
2023/11/03 09:55:46;;;;;;;5.88;1.17;;;13.10;98.30;;;;;;5045923;28;20295;-70
2023/11/03 09:58:15;;;;;;;7.93;1.15;;;13.10;97.70;;;;;;5047940;28;20021;-70
2023/11/03 10:00:44;;;;;;;9.82;1.27;;;13.10;98.10;;;;;;5046320;28;20553;-70
2023/11/03 10:03:09;;;;;;;7.03;1.05;;;13.00;97.90;;;;;;5048452;28;20033;-70
2023/11/03 10:05:37;;;;;;;7.90;1.30;;;13.00;98.00;;;;;;5046392;28;20036;-70
2023/11/03 10:08:04;;;;;;;7.20;1.73;;;12.90;97.90;;;;;;5048228;28;20102;-71
2023/11/03 10:10:33;;;;;;;6.93;1.30;;;12.90;98.00;;;;;;5048954;28;20021;-70
2023/11/03 10:12:59;;;;;;;7.80;1.67;;;12.90;98.00;;;;;;5047172;28;20029;-71
2023/11/03 10:15:26;;;;;;;8.10;1.23;;;12.90;97.80;;;;;;5047150;28;20037;-70
2023/11/03 10:17:56;;;;;;;7.97;1.55;;;12.90;98.10;;;;;;5042291;28;20025;-70
2023/11/03 10:20:25;;;;;;;3.67;0.80;;;12.90;98.00;;;;;;5044248;28;20036;-71
2023/11/03 10:22:51;;;;;;;6.25;1.40;;;12.90;98.10;;;;;;5046354;28;20059;-70
2023/11/03 10:25:27;;;;;;;7.30;1.15;;;12.80;97.70;;;;;;5048855;28;20040;-71
2023/11/03 10:27:56;;;;;;;7.13;1.02;;;12.80;98.00;;;;;;5047976;28;20074;-70
2023/11/03 10:30:29;;;;;;;5.22;1.30;;;12.80;97.90;;;;;;5046836;28;20120;-70
2023/11/03 10:32:58;;;;;;;5.97;1.10;;;12.80;98.10;;;;;;5049384;28;20025;-70
2023/11/03 10:35:23;;;;;;;4.32;0.90;;;12.80;97.80;;;;;;5045285;28;20036;-70
2023/11/03 10:37:49;;;;;;;11.15;1.05;;;12.80;98.10;;;;;;5046469;28;20026;-69
2023/11/03 10:40:15;;;;;;;6.25;1.30;;;12.90;98.20;;;;;;5047745;28;20041;-70
2023/11/03 10:42:47;;;;;;;6.05;1.10;;;12.80;97.90;;;;;;5045756;28;20029;-70
2023/11/03 10:45:15;;;;;;;6.93;1.00;;;12.80;97.90;;;;;;5047008;28;20495;-70
2023/11/03 10:47:57;;;;;;;7.30;1.42;;;12.70;98.10;;;;;;5044985;28;20038;-70
2023/11/03 10:50:31;;;;;;;7.75;1.20;;;12.80;98.30;;;;;;5043440;28;20129;-70
2023/11/03 10:53:39;;;;;;;9.95;1.48;;;12.80;98.30;;;;;;5045760;28;20094;-69
2023/11/03 10:56:05;;;;;;;5.80;1.20;;;12.80;98.30;;;;;;5047207;28;20521;-70
2023/11/03 10:58:32;;;;;;;6.43;1.08;;;12.80;98.00;;;;;;5044812;28;20025;-70
2023/11/03 11:01:13;;;;;;;13.50;1.58;;;12.80;98.00;;;;;;5044448;28;22377;-71
2023/11/03 11:03:50;;;;;;;7.53;1.17;;;12.90;98.10;;;;;;5044615;28;20078;-70
2023/11/03 11:06:22;;;;;;;4.38;1.10;;;12.80;98.10;;;;;;5057544;28;20030;-70
2023/11/03 11:08:53;;;;;;;10.32;1.35;;;12.80;98.30;;;;;;5042451;28;20025;-70
2023/11/03 11:11:19;;;;;;;8.25;1.25;;;12.80;98.30;;;;;;5044276;28;20546;-70
2023/11/03 11:13:44;;;;;;;6.70;1.05;;;12.80;98.20;;;;;;5045025;28;20064;-70
2023/11/03 11:16:12;;;;;;;3.22;0.98;;;12.80;98.20;;;;;;5047354;28;20348;-70
2023/11/03 11:18:51;;;;;;;8.63;1.67;;;12.80;98.30;;;;;;5046981;28;20601;-70
2023/11/03 11:21:28;;;;;;;6.63;0.98;;;12.80;98.40;;;;;;5041876;28;20036;-70
2023/11/03 11:23:58;;;;;;;9.88;1.33;;;12.80;98.00;;;;;;5046595;28;20973;-70
2023/11/03 11:26:25;;;;;;;4.63;1.25;;;12.80;98.10;;;;;;5046719;28;20029;-69
2023/11/03 11:28:51;;;;;;;12.00;1.33;;;12.90;98.20;;;;;;5046787;28;20391;-70
2023/11/03 11:31:26;;;;;;;10.82;1.50;;;12.90;98.20;;;;;;5047493;28;20044;-70
2023/11/03 11:33:58;;;;;;;6.95;1.92;;;12.90;98.10;;;;;;5046856;28;20100;-71
2023/11/03 11:36:24;;;;;;;15.27;1.40;;;12.90;98.40;;;;;;5042620;28;20021;-70
2023/11/03 11:38:50;;;;;;;7.97;1.38;;;12.90;98.30;;;;;;5048717;28;20082;-70
2023/11/03 11:41:16;;;;;;;9.25;1.23;;;12.90;98.30;;;;;;5046497;28;20115;-70
2023/11/03 11:43:42;;;;;;;9.55;1.20;;;12.90;98.30;;;;;;5044266;28;20095;-72
2023/11/03 11:46:09;;;;;;;7.65;1.67;;;12.90;98.30;;;;;;5047704;28;20020;-69
2023/11/03 11:48:36;;;;;;;9.30;1.80;;;12.90;98.30;;;;;;5043512;28;20107;-69
2023/11/03 11:51:03;;;;;;;5.32;1.33;;;12.90;98.10;;;;;;5044343;28;20579;-70
2023/11/03 11:53:31;;;;;;;7.23;1.63;;;12.90;98.30;;;;;;5046122;28;20121;-70
2023/11/03 11:55:57;;;;;;;;;;;12.90;98.10;;;;;;5045126;28;20498;-70
2023/11/03 11:58:25;;;;;;;9.98;1.27;;;12.90;98.00;;;;;;5048069;28;19913;-70
2023/11/03 12:00:51;;;;;;;8.20;2.83;;;12.90;98.20;;;;;;5044822;28;20032;-70
2023/11/03 12:03:18;;;;;;;7.70;1.83;;;12.90;98.10;;;;;;5043862;28;20112;-70
2023/11/03 12:05:44;;;;;;;9.43;2.00;;;12.90;98.10;;;;;;5042660;28;20440;-71
2023/11/03 12:08:10;;;;;;;9.57;2.55;;;12.90;98.20;;;;;;5043794;28;20032;-71
2023/11/03 12:10:35;;;;;;;8.15;2.75;;;12.90;98.20;;;;;;5048872;28;20029;-69
2023/11/03 12:13:04;;;;;;;8.88;2.08;;;13.00;98.40;;;;;;5046603;28;20029;-71
2023/11/03 12:15:30;;;;;;;7.75;1.30;;;12.90;98.20;;;;;;5043548;28;20017;-70
2023/11/03 12:17:58;;;;;;;5.35;1.20;;;13.00;98.30;;;;;;5046423;28;20021;-70
2023/11/03 12:20:24;;;;;;;11.30;2.45;;;13.00;98.30;;;;;;5040901;28;20189;-69
2023/11/03 12:22:50;;;;;;;5.40;1.25;;;13.00;98.40;;;;;;5048933;28;20159;-70
2023/11/03 12:25:16;;;;;;;8.68;1.98;;;13.10;98.60;;;;;;5043334;28;20036;-70
2023/11/03 12:27:42;;;;;;;7.10;1.70;;;13.10;98.50;;;;;;5040780;28;20416;-70
2023/11/03 12:30:08;;;;;;;12.05;1.88;;;13.10;98.40;;;;;;5047239;28;20036;-70
2023/11/03 12:32:34;;;;;;;12.95;1.92;;;13.10;98.40;;;;;;5045240;28;20365;-70
2023/11/03 12:35:01;;;;;;;12.90;2.22;;;13.10;98.60;;;;;;5046210;28;20030;-69
2023/11/03 12:37:27;;;;;;;7.47;1.50;;;13.20;98.60;;;;;;5044185;28;20088;-69
2023/11/03 12:39:55;;;;;;;11.98;2.25;;;13.20;98.50;;;;;;5046524;28;20479;-69
2023/11/03 12:42:26;;;;;;;11.05;2.10;;;13.30;98.80;;;;;;5042266;28;20032;-70
2023/11/03 12:45:03;;;;;;;7.80;1.80;;;13.30;98.80;;;;;;5046434;28;20048;-70
2023/11/03 12:47:38;;;;;;;5.82;1.10;;;13.40;98.70;;;;;;5046925;28;20025;-70